Terminal Aerodrome Forecast
Issued by NWS

Home | Current Version | Previous Version | Text Only | Print | Product List | Glossary On
Versions: 1 2 3 4 5 6 7 8 9 10 11 12 13 14 15 16 17 18 19 20 21 22 23 24 25
077
FTUS42 KJAX 031605 AAC
TAFVQQ
TAF AMD
KVQQ 031605Z 0316/0412 27012G20KT P6SM BKN025
     FM031800 25011KT P6SM SCT025 BKN050
     FM032000 24010KT P6SM VCTS BKN040CB
     FM040000 23005KT P6SM VCSH SCT040 BKN120=

USA.gov is the U.S. government's official web portal to all federal, state and local government web resources and services.